sensor_id;sensor_type;location;lat;lon;timestamp;pressure;altitude;pressure_sealevel;temperature;humidity
64352;BME280;50680;52.626;-8.668;2023-09-19T00:00:56;100227.13;;;14.41;100.00
64352;BME280;50680;52.626;-8.668;2023-09-19T00:03:23;100206.06;;;14.51;100.00
64352;BME280;50680;52.626;-8.668;2023-09-19T00:05:51;100199.28;;;14.48;100.00
64352;BME280;50680;52.626;-8.668;2023-09-19T00:08:18;100191.94;;;14.52;100.00
64352;BME280;50680;52.626;-8.668;2023-09-19T00:10:50;100181.72;;;14.59;100.00
64352;BME280;50680;52.626;-8.668;2023-09-19T00:13:17;100181.97;;;14.56;100.00
64352;BME280;50680;52.626;-8.668;2023-09-19T00:15:47;100183.38;;;14.60;100.00
64352;BME280;50680;52.626;-8.668;2023-09-19T00:18:20;100168.56;;;14.47;100.00
64352;BME280;50680;52.626;-8.668;2023-09-19T00:21:00;100185.41;;;14.56;100.00
64352;BME280;50680;52.626;-8.668;2023-09-19T00:23:27;100176.25;;;14.72;100.00
64352;BME280;50680;52.626;-8.668;2023-09-19T00:26:01;100165.38;;;14.65;100.00
64352;BME280;50680;52.626;-8.668;2023-09-19T00:28:28;100166.78;;;14.69;100.00
64352;BME280;50680;52.626;-8.668;2023-09-19T00:30:56;100164.00;;;14.71;100.00
64352;BME280;50680;52.626;-8.668;2023-09-19T00:33:23;100150.22;;;14.67;100.00
64352;BME280;50680;52.626;-8.668;2023-09-19T00:35:52;100140.25;;;14.71;100.00
64352;BME280;50680;52.626;-8.668;2023-09-19T00:38:20;100134.97;;;14.71;100.00
64352;BME280;50680;52.626;-8.668;2023-09-19T00:40:54;100129.56;;;14.72;100.00
64352;BME280;50680;52.626;-8.668;2023-09-19T00:43:26;100122.63;;;14.71;100.00
64352;BME280;50680;52.626;-8.668;2023-09-19T00:45:55;100124.03;;;14.75;100.00
64352;BME280;50680;52.626;-8.668;2023-09-19T00:48:24;100115.03;;;14.78;100.00
64352;BME280;50680;52.626;-8.668;2023-09-19T00:50:54;100111.41;;;14.79;100.00
64352;BME280;50680;52.626;-8.668;2023-09-19T00:53:24;100108.50;;;14.82;100.00
64352;BME280;50680;52.626;-8.668;2023-09-19T00:55:52;100094.63;;;14.80;100.00
64352;BME280;50680;52.626;-8.668;2023-09-19T00:58:19;100091.16;;;14.79;100.00
64352;BME280;50680;52.626;-8.668;2023-09-19T01:00:48;100081.84;;;14.85;100.00
64352;BME280;50680;52.626;-8.668;2023-09-19T01:03:16;100084.50;;;14.85;100.00
64352;BME280;50680;52.626;-8.668;2023-09-19T01:05:45;100077.97;;;14.89;100.00
64352;BME280;50680;52.626;-8.668;2023-09-19T01:08:12;100058.53;;;14.90;100.00
64352;BME280;50680;52.626;-8.668;2023-09-19T01:13:40;100044.63;;;14.88;100.00
64352;BME280;50680;52.626;-8.668;2023-09-19T01:30:20;99985.88;;;14.96;100.00
64352;BME280;50680;52.626;-8.668;2023-09-19T01:32:51;99980.19;;;15.00;100.00
64352;BME280;50680;52.626;-8.668;2023-09-19T01:35:19;99972.81;;;14.94;100.00
64352;BME280;50680;52.626;-8.668;2023-09-19T01:37:46;99958.09;;;14.92;100.00
64352;BME280;50680;52.626;-8.668;2023-09-19T01:40:15;99955.16;;;14.95;100.00
64352;BME280;50680;52.626;-8.668;2023-09-19T01:42:55;99955.72;;;14.98;100.00
64352;BME280;50680;52.626;-8.668;2023-09-19T01:51:11;99916.84;;;15.00;100.00
64352;BME280;50680;52.626;-8.668;2023-09-19T01:53:55;99915.72;;;15.03;100.00
64352;BME280;50680;52.626;-8.668;2023-09-19T01:56:45;99903.19;;;15.05;100.00
64352;BME280;50680;52.626;-8.668;2023-09-19T01:59:20;99894.31;;;14.96;100.00
64352;BME280;50680;52.626;-8.668;2023-09-19T02:01:49;99879.06;;;14.90;100.00
64352;BME280;50680;52.626;-8.668;2023-09-19T02:04:16;99873.50;;;14.93;100.00
64352;BME280;50680;52.626;-8.668;2023-09-19T02:06:43;99869.06;;;14.94;100.00
64352;BME280;50680;52.626;-8.668;2023-09-19T02:09:10;99858.34;;;14.95;100.00
64352;BME280;50680;52.626;-8.668;2023-09-19T02:11:37;99861.69;;;14.97;100.00
64352;BME280;50680;52.626;-8.668;2023-09-19T02:14:03;99855.41;;;14.98;100.00
64352;BME280;50680;52.626;-8.668;2023-09-19T02:16:35;99847.34;;;15.00;100.00
64352;BME280;50680;52.626;-8.668;2023-09-19T02:19:02;99837.34;;;15.03;100.00
64352;BME280;50680;52.626;-8.668;2023-09-19T02:21:32;99844.56;;;15.11;100.00
64352;BME280;50680;52.626;-8.668;2023-09-19T02:23:59;99839.56;;;15.18;100.00
64352;BME280;50680;52.626;-8.668;2023-09-19T02:26:26;99843.72;;;15.20;100.00
64352;BME280;50680;52.626;-8.668;2023-09-19T02:28:54;99827.59;;;15.23;100.00
64352;BME280;50680;52.626;-8.668;2023-09-19T02:31:21;99821.03;;;15.28;100.00
64352;BME280;50680;52.626;-8.668;2023-09-19T02:33:48;99819.78;;;15.32;100.00
64352;BME280;50680;52.626;-8.668;2023-09-19T02:36:15;99811.13;;;15.39;100.00
64352;BME280;50680;52.626;-8.668;2023-09-19T02:38:46;99807.38;;;15.42;100.00
64352;BME280;50680;52.626;-8.668;2023-09-19T02:41:13;99803.31;;;15.48;100.00
64352;BME280;50680;52.626;-8.668;2023-09-19T02:43:41;99795.41;;;15.48;100.00
64352;BME280;50680;52.626;-8.668;2023-09-19T02:46:09;99798.88;;;15.48;100.00
64352;BME280;50680;52.626;-8.668;2023-09-19T02:48:44;99795.78;;;15.53;100.00
64352;BME280;50680;52.626;-8.668;2023-09-19T02:51:12;99781.31;;;15.57;100.00
64352;BME280;50680;52.626;-8.668;2023-09-19T02:53:41;99773.38;;;15.57;100.00
64352;BME280;50680;52.626;-8.668;2023-09-19T02:56:09;99773.19;;;15.68;100.00
64352;BME280;50680;52.626;-8.668;2023-09-19T02:58:39;99751.44;;;15.74;100.00
64352;BME280;50680;52.626;-8.668;2023-09-19T03:01:11;99780.41;;;15.76;100.00
64352;BME280;50680;52.626;-8.668;2023-09-19T03:03:41;99762.44;;;15.79;100.00
64352;BME280;50680;52.626;-8.668;2023-09-19T03:06:09;99740.47;;;15.79;100.00
64352;BME280;50680;52.626;-8.668;2023-09-19T03:08:39;99747.97;;;15.84;100.00
64352;BME280;50680;52.626;-8.668;2023-09-19T03:11:09;99730.72;;;15.79;100.00
64352;BME280;50680;52.626;-8.668;2023-09-19T03:13:38;99739.66;;;15.96;100.00
64352;BME280;50680;52.626;-8.668;2023-09-19T03:16:10;99752.59;;;16.00;100.00
64352;BME280;50680;52.626;-8.668;2023-09-19T03:18:40;99744.50;;;16.01;100.00
64352;BME280;50680;52.626;-8.668;2023-09-19T03:21:10;99737.94;;;16.05;100.00
64352;BME280;50680;52.626;-8.668;2023-09-19T03:23:39;99732.34;;;16.08;100.00
64352;BME280;50680;52.626;-8.668;2023-09-19T03:26:07;99728.78;;;16.17;100.00
64352;BME280;50680;52.626;-8.668;2023-09-19T03:28:34;99717.47;;;16.25;100.00
64352;BME280;50680;52.626;-8.668;2023-09-19T03:31:03;99724.75;;;16.31;100.00
64352;BME280;50680;52.626;-8.668;2023-09-19T03:33:30;99720.19;;;16.33;100.00
64352;BME280;50680;52.626;-8.668;2023-09-19T03:36:01;99717.06;;;16.38;100.00
64352;BME280;50680;52.626;-8.668;2023-09-19T03:38:32;99710.34;;;16.44;100.00
64352;BME280;50680;52.626;-8.668;2023-09-19T03:41:01;99711.00;;;16.46;100.00
64352;BME280;50680;52.626;-8.668;2023-09-19T03:43:28;99707.72;;;16.52;100.00
64352;BME280;50680;52.626;-8.668;2023-09-19T03:45:56;99703.31;;;16.61;100.00
64352;BME280;50680;52.626;-8.668;2023-09-19T03:48:23;99698.72;;;16.63;100.00
64352;BME280;50680;52.626;-8.668;2023-09-19T03:50:51;99701.53;;;16.61;100.00
64352;BME280;50680;52.626;-8.668;2023-09-19T03:53:20;99704.53;;;16.66;100.00
64352;BME280;50680;52.626;-8.668;2023-09-19T03:55:48;99699.28;;;16.74;100.00
64352;BME280;50680;52.626;-8.668;2023-09-19T03:58:16;99706.63;;;16.81;100.00
64352;BME280;50680;52.626;-8.668;2023-09-19T04:00:43;99709.94;;;16.83;100.00
64352;BME280;50680;52.626;-8.668;2023-09-19T04:03:11;99706.53;;;16.90;100.00
64352;BME280;50680;52.626;-8.668;2023-09-19T04:05:46;99696.47;;;16.94;100.00
64352;BME280;50680;52.626;-8.668;2023-09-19T04:08:14;99710.06;;;16.99;100.00
64352;BME280;50680;52.626;-8.668;2023-09-19T04:10:44;99698.31;;;17.02;100.00
64352;BME280;50680;52.626;-8.668;2023-09-19T04:13:12;99706.41;;;17.00;100.00
64352;BME280;50680;52.626;-8.668;2023-09-19T04:15:39;99704.94;;;17.06;100.00
64352;BME280;50680;52.626;-8.668;2023-09-19T04:18:07;99703.34;;;17.13;100.00
64352;BME280;50680;52.626;-8.668;2023-09-19T04:20:34;99706.81;;;17.14;100.00
64352;BME280;50680;52.626;-8.668;2023-09-19T04:23:00;99708.16;;;17.18;100.00
64352;BME280;50680;52.626;-8.668;2023-09-19T04:25:27;99691.94;;;17.21;100.00
64352;BME280;50680;52.626;-8.668;2023-09-19T04:27:54;99690.97;;;17.30;100.00
64352;BME280;50680;52.626;-8.668;2023-09-19T04:30:21;99680.06;;;17.33;100.00
64352;BME280;50680;52.626;-8.668;2023-09-19T04:32:48;99685.72;;;17.38;100.00
64352;BME280;50680;52.626;-8.668;2023-09-19T04:35:18;99692.19;;;17.44;100.00
64352;BME280;50680;52.626;-8.668;2023-09-19T04:37:45;99687.22;;;17.49;100.00
64352;BME280;50680;52.626;-8.668;2023-09-19T04:40:12;99673.50;;;17.54;100.00
64352;BME280;50680;52.626;-8.668;2023-09-19T04:42:43;99677.97;;;17.61;100.00
64352;BME280;50680;52.626;-8.668;2023-09-19T04:45:10;99677.81;;;17.63;100.00
64352;BME280;50680;52.626;-8.668;2023-09-19T04:47:38;99668.75;;;17.74;100.00
64352;BME280;50680;52.626;-8.668;2023-09-19T04:50:07;99682.47;;;17.61;100.00
64352;BME280;50680;52.626;-8.668;2023-09-19T04:52:42;99683.63;;;17.58;100.00
64352;BME280;50680;52.626;-8.668;2023-09-19T04:55:10;99686.28;;;17.66;100.00
64352;BME280;50680;52.626;-8.668;2023-09-19T04:57:37;99686.13;;;17.60;100.00
64352;BME280;50680;52.626;-8.668;2023-09-19T05:00:05;99690.25;;;17.62;100.00
64352;BME280;50680;52.626;-8.668;2023-09-19T05:02:38;99684.31;;;17.69;100.00
64352;BME280;50680;52.626;-8.668;2023-09-19T05:05:07;99678.00;;;17.70;100.00
64352;BME280;50680;52.626;-8.668;2023-09-19T05:07:35;99682.81;;;17.66;100.00
64352;BME280;50680;52.626;-8.668;2023-09-19T05:10:02;99684.97;;;17.71;100.00
64352;BME280;50680;52.626;-8.668;2023-09-19T05:12:33;99683.00;;;17.73;100.00
64352;BME280;50680;52.626;-8.668;2023-09-19T05:15:05;99689.47;;;17.70;100.00
64352;BME280;50680;52.626;-8.668;2023-09-19T05:17:36;99682.00;;;17.74;100.00
64352;BME280;50680;52.626;-8.668;2023-09-19T05:20:03;99678.34;;;17.75;100.00
64352;BME280;50680;52.626;-8.668;2023-09-19T05:22:39;99663.78;;;17.71;100.00
64352;BME280;50680;52.626;-8.668;2023-09-19T05:25:07;99675.69;;;17.75;100.00
64352;BME280;50680;52.626;-8.668;2023-09-19T05:27:34;99678.03;;;17.78;100.00
64352;BME280;50680;52.626;-8.668;2023-09-19T05:30:01;99671.72;;;17.71;100.00
64352;BME280;50680;52.626;-8.668;2023-09-19T05:32:28;99679.53;;;17.72;100.00
64352;BME280;50680;52.626;-8.668;2023-09-19T05:34:55;99675.34;;;17.70;100.00
64352;BME280;50680;52.626;-8.668;2023-09-19T05:37:23;99665.78;;;17.69;100.00
64352;BME280;50680;52.626;-8.668;2023-09-19T05:39:50;99660.47;;;17.77;100.00
64352;BME280;50680;52.626;-8.668;2023-09-19T05:42:16;99660.81;;;17.74;100.00
64352;BME280;50680;52.626;-8.668;2023-09-19T05:44:44;99656.47;;;17.73;100.00
64352;BME280;50680;52.626;-8.668;2023-09-19T05:47:10;99659.97;;;17.81;100.00
64352;BME280;50680;52.626;-8.668;2023-09-19T05:49:37;99659.47;;;17.78;100.00
64352;BME280;50680;52.626;-8.668;2023-09-19T05:52:08;99660.13;;;17.80;100.00
64352;BME280;50680;52.626;-8.668;2023-09-19T05:54:34;99660.63;;;17.83;100.00
64352;BME280;50680;52.626;-8.668;2023-09-19T05:57:01;99660.84;;;17.90;100.00
64352;BME280;50680;52.626;-8.668;2023-09-19T05:59:28;99646.56;;;17.83;100.00
64352;BME280;50680;52.626;-8.668;2023-09-19T06:01:55;99652.69;;;17.83;100.00
64352;BME280;50680;52.626;-8.668;2023-09-19T06:04:22;99660.13;;;17.80;100.00
64352;BME280;50680;52.626;-8.668;2023-09-19T06:06:50;99657.16;;;17.83;100.00
64352;BME280;50680;52.626;-8.668;2023-09-19T06:09:16;99652.03;;;17.81;100.00
64352;BME280;50680;52.626;-8.668;2023-09-19T06:11:43;99649.22;;;17.83;100.00
64352;BME280;50680;52.626;-8.668;2023-09-19T06:14:10;99652.84;;;17.82;100.00
64352;BME280;50680;52.626;-8.668;2023-09-19T06:16:38;99649.75;;;17.87;100.00
64352;BME280;50680;52.626;-8.668;2023-09-19T06:19:06;99641.09;;;17.84;100.00
64352;BME280;50680;52.626;-8.668;2023-09-19T06:21:36;99648.25;;;17.92;100.00
64352;BME280;50680;52.626;-8.668;2023-09-19T06:24:04;99644.94;;;17.90;100.00
64352;BME280;50680;52.626;-8.668;2023-09-19T06:26:31;99651.91;;;17.91;100.00
64352;BME280;50680;52.626;-8.668;2023-09-19T06:28:58;99654.41;;;17.93;100.00
64352;BME280;50680;52.626;-8.668;2023-09-19T06:31:26;99648.25;;;17.92;100.00
64352;BME280;50680;52.626;-8.668;2023-09-19T06:33:53;99650.56;;;17.95;100.00
64352;BME280;50680;52.626;-8.668;2023-09-19T06:36:20;99648.91;;;17.94;100.00
64352;BME280;50680;52.626;-8.668;2023-09-19T06:38:47;99650.41;;;17.97;100.00
64352;BME280;50680;52.626;-8.668;2023-09-19T06:41:17;99650.09;;;18.00;100.00
64352;BME280;50680;52.626;-8.668;2023-09-19T06:43:45;99657.88;;;18.01;100.00
64352;BME280;50680;52.626;-8.668;2023-09-19T06:46:12;99653.41;;;18.02;100.00
64352;BME280;50680;52.626;-8.668;2023-09-19T06:48:39;99657.19;;;18.08;100.00
64352;BME280;50680;52.626;-8.668;2023-09-19T06:51:07;99662.66;;;18.06;100.00
64352;BME280;50680;52.626;-8.668;2023-09-19T06:53:34;99661.84;;;18.06;100.00
64352;BME280;50680;52.626;-8.668;2023-09-19T06:56:02;99662.84;;;18.04;100.00
64352;BME280;50680;52.626;-8.668;2023-09-19T06:58:29;99663.16;;;18.10;100.00
64352;BME280;50680;52.626;-8.668;2023-09-19T07:00:58;99672.78;;;18.11;100.00
64352;BME280;50680;52.626;-8.668;2023-09-19T07:03:25;99671.47;;;18.07;100.00
64352;BME280;50680;52.626;-8.668;2023-09-19T07:05:54;99665.16;;;18.08;100.00
64352;BME280;50680;52.626;-8.668;2023-09-19T07:08:22;99668.47;;;18.10;100.00
64352;BME280;50680;52.626;-8.668;2023-09-19T07:10:49;99669.97;;;18.04;100.00
64352;BME280;50680;52.626;-8.668;2023-09-19T07:13:16;99676.44;;;18.10;100.00
64352;BME280;50680;52.626;-8.668;2023-09-19T07:15:44;99682.09;;;18.07;100.00
64352;BME280;50680;52.626;-8.668;2023-09-19T07:18:15;99681.91;;;18.08;100.00
64352;BME280;50680;52.626;-8.668;2023-09-19T07:20:44;99681.06;;;17.99;100.00
64352;BME280;50680;52.626;-8.668;2023-09-19T07:23:21;99686.72;;;17.96;100.00
64352;BME280;50680;52.626;-8.668;2023-09-19T07:25:56;99687.38;;;17.98;100.00
64352;BME280;50680;52.626;-8.668;2023-09-19T07:28:23;99696.31;;;17.97;100.00
64352;BME280;50680;52.626;-8.668;2023-09-19T07:30:50;99697.97;;;17.90;100.00
64352;BME280;50680;52.626;-8.668;2023-09-19T07:33:17;99692.81;;;17.89;100.00
64352;BME280;50680;52.626;-8.668;2023-09-19T07:35:47;99694.66;;;17.96;100.00
64352;BME280;50680;52.626;-8.668;2023-09-19T07:38:14;99703.78;;;17.94;100.00
64352;BME280;50680;52.626;-8.668;2023-09-19T07:40:41;99693.00;;;17.95;100.00
64352;BME280;50680;52.626;-8.668;2023-09-19T07:43:08;99692.03;;;17.96;100.00
64352;BME280;50680;52.626;-8.668;2023-09-19T07:45:35;99691.50;;;18.01;100.00
64352;BME280;50680;52.626;-8.668;2023-09-19T07:48:03;99698.31;;;17.95;100.00
64352;BME280;50680;52.626;-8.668;2023-09-19T07:50:33;99691.66;;;17.99;100.00
64352;BME280;50680;52.626;-8.668;2023-09-19T07:53:00;99705.13;;;17.98;100.00
64352;BME280;50680;52.626;-8.668;2023-09-19T07:55:27;99686.56;;;17.98;100.00
64352;BME280;50680;52.626;-8.668;2023-09-19T07:57:54;99696.16;;;17.99;100.00
64352;BME280;50680;52.626;-8.668;2023-09-19T08:00:20;99694.50;;;17.98;100.00
64352;BME280;50680;52.626;-8.668;2023-09-19T08:02:47;99691.66;;;17.99;100.00
64352;BME280;50680;52.626;-8.668;2023-09-19T08:05:24;99704.59;;;18.02;100.00
64352;BME280;50680;52.626;-8.668;2023-09-19T08:07:51;99684.41;;;18.01;100.00
64352;BME280;50680;52.626;-8.668;2023-09-19T08:10:19;99696.66;;;18.02;100.00
64352;BME280;50680;52.626;-8.668;2023-09-19T08:12:48;99701.63;;;18.06;100.00
64352;BME280;50680;52.626;-8.668;2023-09-19T08:15:19;99690.53;;;18.02;100.00
64352;BME280;50680;52.626;-8.668;2023-09-19T08:17:49;99698.47;;;18.02;100.00
64352;BME280;50680;52.626;-8.668;2023-09-19T08:20:17;99687.22;;;18.08;100.00
64352;BME280;50680;52.626;-8.668;2023-09-19T08:22:52;99695.19;;;18.08;100.00
64352;BME280;50680;52.626;-8.668;2023-09-19T08:25:21;99681.22;;;18.06;100.00
64352;BME280;50680;52.626;-8.668;2023-09-19T08:27:48;99687.88;;;18.10;100.00
64352;BME280;50680;52.626;-8.668;2023-09-19T08:30:18;99702.44;;;18.06;100.00
64352;BME280;50680;52.626;-8.668;2023-09-19T08:32:46;99693.69;;;18.14;100.00
64352;BME280;50680;52.626;-8.668;2023-09-19T08:35:14;99689.38;;;18.21;100.00
64352;BME280;50680;52.626;-8.668;2023-09-19T08:37:44;99698.31;;;18.20;100.00
64352;BME280;50680;52.626;-8.668;2023-09-19T08:40:14;99691.53;;;18.17;100.00
64352;BME280;50680;52.626;-8.668;2023-09-19T08:42:52;99687.88;;;18.18;100.00
64352;BME280;50680;52.626;-8.668;2023-09-19T08:45:25;99693.38;;;18.17;100.00
64352;BME280;50680;52.626;-8.668;2023-09-19T08:50:56;99678.09;;;18.11;100.00
64352;BME280;50680;52.626;-8.668;2023-09-19T08:53:54;99687.88;;;18.18;100.00
64352;BME280;50680;52.626;-8.668;2023-09-19T08:56:26;99692.34;;;18.18;100.00
64352;BME280;50680;52.626;-8.668;2023-09-19T08:59:00;99694.69;;;18.21;100.00
64352;BME280;50680;52.626;-8.668;2023-09-19T09:01:28;99695.34;;;18.23;100.00
64352;BME280;50680;52.626;-8.668;2023-09-19T09:03:56;99699.31;;;18.19;100.00
64352;BME280;50680;52.626;-8.668;2023-09-19T09:06:25;99694.69;;;18.21;100.00
64352;BME280;50680;52.626;-8.668;2023-09-19T09:08:52;99686.03;;;18.27;100.00
64352;BME280;50680;52.626;-8.668;2023-09-19T09:11:19;99700.31;;;18.34;100.00
64352;BME280;50680;52.626;-8.668;2023-09-19T09:13:47;99713.75;;;18.33;100.00
64352;BME280;50680;52.626;-8.668;2023-09-19T09:16:14;99709.94;;;18.35;100.00
64352;BME280;50680;52.626;-8.668;2023-09-19T09:18:46;99711.25;;;18.31;100.00
64352;BME280;50680;52.626;-8.668;2023-09-19T09:21:25;99710.78;;;18.36;100.00
64352;BME280;50680;52.626;-8.668;2023-09-19T09:23:55;99725.84;;;18.27;100.00
64352;BME280;50680;52.626;-8.668;2023-09-19T09:26:41;99740.63;;;18.30;100.00
64352;BME280;50680;52.626;-8.668;2023-09-19T09:29:09;99737.47;;;18.26;100.00
64352;BME280;50680;52.626;-8.668;2023-09-19T09:31:36;99734.81;;;18.34;100.00
64352;BME280;50680;52.626;-8.668;2023-09-19T09:34:05;99742.59;;;18.28;100.00
64352;BME280;50680;52.626;-8.668;2023-09-19T09:36:41;99748.91;;;18.35;100.00
64352;BME280;50680;52.626;-8.668;2023-09-19T09:39:08;99743.09;;;18.31;100.00
64352;BME280;50680;52.626;-8.668;2023-09-19T09:41:45;99755.88;;;18.36;100.00
64352;BME280;50680;52.626;-8.668;2023-09-19T09:44:17;99754.72;;;18.38;100.00
64352;BME280;50680;52.626;-8.668;2023-09-19T09:46:48;99743.78;;;18.41;100.00
64352;BME280;50680;52.626;-8.668;2023-09-19T09:49:27;99756.03;;;18.42;100.00
64352;BME280;50680;52.626;-8.668;2023-09-19T09:52:04;99749.41;;;18.47;100.00
64352;BME280;50680;52.626;-8.668;2023-09-19T09:54:37;99752.41;;;18.44;100.00
64352;BME280;50680;52.626;-8.668;2023-09-19T09:57:11;99751.91;;;18.48;100.00
64352;BME280;50680;52.626;-8.668;2023-09-19T09:59:57;99749.41;;;18.63;100.00
64352;BME280;50680;52.626;-8.668;2023-09-19T10:05:11;99744.25;;;18.70;100.00
64352;BME280;50680;52.626;-8.668;2023-09-19T10:07:49;99735.13;;;18.64;100.00
64352;BME280;50680;52.626;-8.668;2023-09-19T10:13:06;99736.44;;;18.60;100.00
64352;BME280;50680;52.626;-8.668;2023-09-19T10:15:34;99735.47;;;18.61;100.00
64352;BME280;50680;52.626;-8.668;2023-09-19T10:18:06;99724.34;;;18.57;100.00
64352;BME280;50680;52.626;-8.668;2023-09-19T10:20:39;99724.19;;;18.59;100.00
64352;BME280;50680;52.626;-8.668;2023-09-19T10:23:10;99723.16;;;18.60;100.00
64352;BME280;50680;52.626;-8.668;2023-09-19T10:25:41;99726.19;;;18.57;100.00
64352;BME280;50680;52.626;-8.668;2023-09-19T10:28:10;99726.19;;;18.57;100.00
64352;BME280;50680;52.626;-8.668;2023-09-19T10:30:43;99730.66;;;18.56;100.00
64352;BME280;50680;52.626;-8.668;2023-09-19T10:33:13;99732.97;;;18.51;100.00
64352;BME280;50680;52.626;-8.668;2023-09-19T10:35:45;99725.84;;;18.52;100.00
64352;BME280;50680;52.626;-8.668;2023-09-19T10:38:14;99734.63;;;18.52;100.00
64352;BME280;50680;52.626;-8.668;2023-09-19T10:40:49;99726.84;;;18.59;100.00
64352;BME280;50680;52.626;-8.668;2023-09-19T10:43:19;99732.81;;;18.61;100.00
64352;BME280;50680;52.626;-8.668;2023-09-19T10:45:49;99731.47;;;18.65;100.00
64352;BME280;50680;52.626;-8.668;2023-09-19T10:48:20;99714.72;;;18.73;100.00
64352;BME280;50680;52.626;-8.668;2023-09-19T10:51:15;99726.84;;;18.59;100.00
64352;BME280;50680;52.626;-8.668;2023-09-19T10:53:48;99730.16;;;18.69;100.00
64352;BME280;50680;52.626;-8.668;2023-09-19T10:56:23;99739.09;;;18.68;100.00
64352;BME280;50680;52.626;-8.668;2023-09-19T10:59:15;99727.81;;;18.74;100.00
64352;BME280;50680;52.626;-8.668;2023-09-19T11:01:55;99724.50;;;18.64;100.00
64352;BME280;50680;52.626;-8.668;2023-09-19T11:04:36;99723.16;;;18.68;100.00
64352;BME280;50680;52.626;-8.668;2023-09-19T11:07:10;99724.34;;;18.66;100.00
64352;BME280;50680;52.626;-8.668;2023-09-19T11:14:59;99725.66;;;18.70;100.00
64352;BME280;50680;52.626;-8.668;2023-09-19T11:30:53;99736.75;;;18.98;100.00
64352;BME280;50680;52.626;-8.668;2023-09-19T11:33:23;99725.28;;;19.14;100.00
64352;BME280;50680;52.626;-8.668;2023-09-19T11:46:54;99720.44;;;19.57;100.00
64352;BME280;50680;52.626;-8.668;2023-09-19T11:49:32;99722.97;;;19.50;100.00
64352;BME280;50680;52.626;-8.668;2023-09-19T11:52:00;99728.41;;;19.57;100.00
64352;BME280;50680;52.626;-8.668;2023-09-19T11:54:28;99718.31;;;19.44;100.00
64352;BME280;50680;52.626;-8.668;2023-09-19T11:56:59;99720.06;;;19.60;100.00
64352;BME280;50680;52.626;-8.668;2023-09-19T11:59:27;99701.59;;;19.67;100.00
64352;BME280;50680;52.626;-8.668;2023-09-19T12:01:56;99697.84;;;19.84;100.00
64352;BME280;50680;52.626;-8.668;2023-09-19T12:04:39;99706.69;;;20.08;100.00
64352;BME280;50680;52.626;-8.668;2023-09-19T12:07:09;99696.97;;;20.15;100.00
64352;BME280;50680;52.626;-8.668;2023-09-19T12:09:44;99696.91;;;20.23;100.00
64352;BME280;50680;52.626;-8.668;2023-09-19T12:12:20;99690.69;;;20.31;100.00
64352;BME280;50680;52.626;-8.668;2023-09-19T12:14:49;99690.25;;;20.42;100.00
64352;BME280;50680;52.626;-8.668;2023-09-19T12:17:17;99695.97;;;20.54;100.00
64352;BME280;50680;52.626;-8.668;2023-09-19T12:19:51;99685.81;;;20.73;100.00
64352;BME280;50680;52.626;-8.668;2023-09-19T12:22:19;99692.09;;;20.80;100.00
64352;BME280;50680;52.626;-8.668;2023-09-19T12:24:49;99697.72;;;20.85;100.00
64352;BME280;50680;52.626;-8.668;2023-09-19T12:27:17;99702.00;;;20.86;100.00
64352;BME280;50680;52.626;-8.668;2023-09-19T12:29:48;99701.00;;;20.72;100.00
64352;BME280;50680;52.626;-8.668;2023-09-19T12:32:35;99697.75;;;20.62;100.00
64352;BME280;50680;52.626;-8.668;2023-09-19T12:35:02;99696.75;;;20.63;100.00
64352;BME280;50680;52.626;-8.668;2023-09-19T12:37:34;99695.56;;;20.65;100.00
64352;BME280;50680;52.626;-8.668;2023-09-19T12:40:07;99680.88;;;20.70;100.00
64352;BME280;50680;52.626;-8.668;2023-09-19T12:42:45;99682.97;;;21.19;100.00
64352;BME280;50680;52.626;-8.668;2023-09-19T12:45:14;99685.69;;;21.04;100.00
64352;BME280;50680;52.626;-8.668;2023-09-19T12:48:18;99676.47;;;21.07;100.00
64352;BME280;50680;52.626;-8.668;2023-09-19T12:51:09;99670.88;;;21.01;100.00
64352;BME280;50680;52.626;-8.668;2023-09-19T12:53:43;99674.53;;;21.00;100.00
64352;BME280;50680;52.626;-8.668;2023-09-19T12:56:16;99666.53;;;21.00;100.00
64352;BME280;50680;52.626;-8.668;2023-09-19T12:58:55;99679.69;;;20.87;100.00
64352;BME280;50680;52.626;-8.668;2023-09-19T13:01:23;99670.78;;;20.80;100.00
64352;BME280;50680;52.626;-8.668;2023-09-19T13:04:14;99660.97;;;20.42;100.00
64352;BME280;50680;52.626;-8.668;2023-09-19T13:06:49;99667.47;;;20.40;100.00
64352;BME280;50680;52.626;-8.668;2023-09-19T13:09:18;99677.13;;;20.41;100.00
64352;BME280;50680;52.626;-8.668;2023-09-19T13:11:47;99671.88;;;20.33;100.00
64352;BME280;50680;52.626;-8.668;2023-09-19T13:17:04;99647.84;;;20.41;100.00
64352;BME280;50680;52.626;-8.668;2023-09-19T13:19:45;99654.25;;;20.70;100.00
64352;BME280;50680;52.626;-8.668;2023-09-19T13:22:38;99644.22;;;20.87;100.00
64352;BME280;50680;52.626;-8.668;2023-09-19T13:25:10;99646.63;;;20.96;100.00
64352;BME280;50680;52.626;-8.668;2023-09-19T13:27:47;99652.38;;;21.15;100.00
64352;BME280;50680;52.626;-8.668;2023-09-19T13:30:18;99652.03;;;21.18;100.00
64352;BME280;50680;52.626;-8.668;2023-09-19T13:32:45;99661.59;;;20.97;100.00
64352;BME280;50680;52.626;-8.668;2023-09-19T13:35:15;99643.41;;;20.86;100.00
64352;BME280;50680;52.626;-8.668;2023-09-19T13:37:43;99638.88;;;20.87;100.00
64352;BME280;50680;52.626;-8.668;2023-09-19T13:40:12;99651.75;;;21.13;100.00
64352;BME280;50680;52.626;-8.668;2023-09-19T13:42:40;99648.06;;;21.14;100.00
64352;BME280;50680;52.626;-8.668;2023-09-19T13:45:08;99626.84;;;21.06;100.00
64352;BME280;50680;52.626;-8.668;2023-09-19T13:47:39;99603.34;;;21.31;100.00
64352;BME280;50680;52.626;-8.668;2023-09-19T13:50:08;99589.47;;;21.35;100.00
64352;BME280;50680;52.626;-8.668;2023-09-19T13:52:35;99597.50;;;21.57;100.00
64352;BME280;50680;52.626;-8.668;2023-09-19T13:55:02;99604.66;;;21.78;100.00
64352;BME280;50680;52.626;-8.668;2023-09-19T13:57:29;99594.25;;;21.83;100.00